sensor_id;sensor_type;location;lat;lon;timestamp;P1;durP1;ratioP1;P2;durP2;ratioP2
13218;SDS011;6674;49.152;11.918;2023-09-18T00:02:11;3.67;;;3.37;;
13218;SDS011;6674;49.152;11.918;2023-09-18T00:04:38;3.83;;;3.63;;
13218;SDS011;6674;49.152;11.918;2023-09-18T00:07:07;4.10;;;3.90;;
13218;SDS011;6674;49.152;11.918;2023-09-18T00:09:36;3.93;;;3.70;;
13218;SDS011;6674;49.152;11.918;2023-09-18T00:12:05;3.60;;;3.40;;
13218;SDS011;6674;49.152;11.918;2023-09-18T00:14:32;4.40;;;4.00;;
13218;SDS011;6674;49.152;11.918;2023-09-18T00:17:00;3.60;;;3.40;;
13218;SDS011;6674;49.152;11.918;2023-09-18T00:19:33;3.93;;;3.63;;
13218;SDS011;6674;49.152;11.918;2023-09-18T00:22:02;3.70;;;3.50;;
13218;SDS011;6674;49.152;11.918;2023-09-18T00:24:31;3.70;;;3.40;;
13218;SDS011;6674;49.152;11.918;2023-09-18T00:26:59;3.90;;;3.60;;
13218;SDS011;6674;49.152;11.918;2023-09-18T00:29:26;3.57;;;3.37;;
13218;SDS011;6674;49.152;11.918;2023-09-18T00:31:53;3.77;;;3.53;;
13218;SDS011;6674;49.152;11.918;2023-09-18T00:34:21;4.10;;;3.80;;
13218;SDS011;6674;49.152;11.918;2023-09-18T00:36:48;3.90;;;3.60;;
13218;SDS011;6674;49.152;11.918;2023-09-18T00:39:17;4.07;;;3.87;;
13218;SDS011;6674;49.152;11.918;2023-09-18T00:41:47;4.67;;;4.30;;
13218;SDS011;6674;49.152;11.918;2023-09-18T00:44:19;4.87;;;4.47;;
13218;SDS011;6674;49.152;11.918;2023-09-18T00:46:47;4.40;;;4.10;;
13218;SDS011;6674;49.152;11.918;2023-09-18T00:49:14;4.87;;;4.57;;
13218;SDS011;6674;49.152;11.918;2023-09-18T00:51:42;4.50;;;4.20;;
13218;SDS011;6674;49.152;11.918;2023-09-18T00:54:10;4.77;;;4.47;;
13218;SDS011;6674;49.152;11.918;2023-09-18T00:56:38;4.63;;;4.23;;
13218;SDS011;6674;49.152;11.918;2023-09-18T00:59:07;4.97;;;4.57;;
13218;SDS011;6674;49.152;11.918;2023-09-18T01:01:35;4.07;;;3.77;;
13218;SDS011;6674;49.152;11.918;2023-09-18T01:04:03;4.40;;;4.10;;
13218;SDS011;6674;49.152;11.918;2023-09-18T01:06:30;4.50;;;4.20;;
13218;SDS011;6674;49.152;11.918;2023-09-18T01:08:57;5.20;;;4.73;;
13218;SDS011;6674;49.152;11.918;2023-09-18T01:11:26;4.67;;;4.37;;
13218;SDS011;6674;49.152;11.918;2023-09-18T01:13:59;4.80;;;4.40;;
13218;SDS011;6674;49.152;11.918;2023-09-18T01:16:32;4.53;;;4.13;;
13218;SDS011;6674;49.152;11.918;2023-09-18T01:19:01;4.50;;;4.20;;
13218;SDS011;6674;49.152;11.918;2023-09-18T01:21:29;4.70;;;4.37;;
13218;SDS011;6674;49.152;11.918;2023-09-18T01:23:57;4.80;;;4.50;;
13218;SDS011;6674;49.152;11.918;2023-09-18T01:26:25;4.27;;;3.97;;
13218;SDS011;6674;49.152;11.918;2023-09-18T01:28:52;5.00;;;4.60;;
13218;SDS011;6674;49.152;11.918;2023-09-18T01:31:20;4.40;;;4.10;;
13218;SDS011;6674;49.152;11.918;2023-09-18T01:33:48;4.00;;;3.70;;
13218;SDS011;6674;49.152;11.918;2023-09-18T01:36:16;5.00;;;4.50;;
13218;SDS011;6674;49.152;11.918;2023-09-18T01:38:44;4.50;;;4.20;;
13218;SDS011;6674;49.152;11.918;2023-09-18T01:41:13;4.83;;;4.43;;
13218;SDS011;6674;49.152;11.918;2023-09-18T01:43:41;4.53;;;4.23;;
13218;SDS011;6674;49.152;11.918;2023-09-18T01:46:08;4.63;;;4.33;;
13218;SDS011;6674;49.152;11.918;2023-09-18T01:48:36;4.40;;;4.10;;
13218;SDS011;6674;49.152;11.918;2023-09-18T01:51:04;4.57;;;4.17;;
13218;SDS011;6674;49.152;11.918;2023-09-18T01:53:32;4.70;;;4.23;;
13218;SDS011;6674;49.152;11.918;2023-09-18T01:56:00;5.20;;;4.80;;
13218;SDS011;6674;49.152;11.918;2023-09-18T01:58:30;4.70;;;4.40;;
13218;SDS011;6674;49.152;11.918;2023-09-18T02:01:00;5.10;;;4.70;;
13218;SDS011;6674;49.152;11.918;2023-09-18T02:03:28;5.00;;;4.60;;
13218;SDS011;6674;49.152;11.918;2023-09-18T02:05:55;4.83;;;4.43;;
13218;SDS011;6674;49.152;11.918;2023-09-18T02:08:22;4.83;;;4.47;;
13218;SDS011;6674;49.152;11.918;2023-09-18T02:10:50;4.60;;;4.30;;
13218;SDS011;6674;49.152;11.918;2023-09-18T02:13:18;4.37;;;4.07;;
13218;SDS011;6674;49.152;11.918;2023-09-18T02:15:48;4.90;;;4.50;;
13218;SDS011;6674;49.152;11.918;2023-09-18T02:18:15;4.17;;;3.87;;
13218;SDS011;6674;49.152;11.918;2023-09-18T02:20:42;4.33;;;4.03;;
13218;SDS011;6674;49.152;11.918;2023-09-18T02:23:09;4.70;;;4.40;;
13218;SDS011;6674;49.152;11.918;2023-09-18T02:25:36;4.77;;;4.37;;
13218;SDS011;6674;49.152;11.918;2023-09-18T02:28:02;4.40;;;4.10;;
13218;SDS011;6674;49.152;11.918;2023-09-18T02:30:29;4.90;;;4.40;;
13218;SDS011;6674;49.152;11.918;2023-09-18T02:32:57;4.33;;;4.03;;
13218;SDS011;6674;49.152;11.918;2023-09-18T02:35:24;4.27;;;3.97;;
13218;SDS011;6674;49.152;11.918;2023-09-18T02:37:50;5.33;;;4.93;;
13218;SDS011;6674;49.152;11.918;2023-09-18T02:40:17;4.80;;;4.50;;
13218;SDS011;6674;49.152;11.918;2023-09-18T02:42:43;4.93;;;4.53;;
13218;SDS011;6674;49.152;11.918;2023-09-18T02:45:09;4.50;;;4.20;;
13218;SDS011;6674;49.152;11.918;2023-09-18T02:47:36;4.50;;;4.20;;
13218;SDS011;6674;49.152;11.918;2023-09-18T02:50:09;4.77;;;4.40;;
13218;SDS011;6674;49.152;11.918;2023-09-18T02:52:37;4.53;;;4.13;;
13218;SDS011;6674;49.152;11.918;2023-09-18T02:55:04;4.73;;;4.43;;
13218;SDS011;6674;49.152;11.918;2023-09-18T02:57:31;4.50;;;4.20;;
13218;SDS011;6674;49.152;11.918;2023-09-18T02:59:57;5.10;;;4.70;;
13218;SDS011;6674;49.152;11.918;2023-09-18T03:02:24;4.87;;;4.47;;
13218;SDS011;6674;49.152;11.918;2023-09-18T03:04:50;4.43;;;4.13;;
13218;SDS011;6674;49.152;11.918;2023-09-18T03:07:18;4.90;;;4.50;;
13218;SDS011;6674;49.152;11.918;2023-09-18T03:09:44;4.80;;;4.40;;
13218;SDS011;6674;49.152;11.918;2023-09-18T03:12:10;4.80;;;4.40;;
13218;SDS011;6674;49.152;11.918;2023-09-18T03:14:37;5.07;;;4.67;;
13218;SDS011;6674;49.152;11.918;2023-09-18T03:17:03;5.00;;;4.60;;
13218;SDS011;6674;49.152;11.918;2023-09-18T03:19:30;5.00;;;4.60;;
13218;SDS011;6674;49.152;11.918;2023-09-18T03:21:56;5.07;;;4.67;;
13218;SDS011;6674;49.152;11.918;2023-09-18T03:24:24;4.83;;;4.50;;
13218;SDS011;6674;49.152;11.918;2023-09-18T03:26:51;5.17;;;4.80;;
13218;SDS011;6674;49.152;11.918;2023-09-18T03:29:17;4.70;;;4.40;;
13218;SDS011;6674;49.152;11.918;2023-09-18T03:31:43;4.63;;;4.33;;
13218;SDS011;6674;49.152;11.918;2023-09-18T03:34:10;5.03;;;4.67;;
13218;SDS011;6674;49.152;11.918;2023-09-18T03:36:36;4.57;;;4.27;;
13218;SDS011;6674;49.152;11.918;2023-09-18T03:39:04;5.13;;;4.73;;
13218;SDS011;6674;49.152;11.918;2023-09-18T03:41:32;5.83;;;5.43;;
13218;SDS011;6674;49.152;11.918;2023-09-18T03:43:59;5.37;;;4.97;;
13218;SDS011;6674;49.152;11.918;2023-09-18T03:46:25;5.00;;;4.60;;
13218;SDS011;6674;49.152;11.918;2023-09-18T03:48:52;6.10;;;5.60;;
13218;SDS011;6674;49.152;11.918;2023-09-18T03:51:18;6.00;;;5.50;;
13218;SDS011;6674;49.152;11.918;2023-09-18T03:53:45;4.90;;;4.50;;
13218;SDS011;6674;49.152;11.918;2023-09-18T03:56:13;4.60;;;4.23;;
13218;SDS011;6674;49.152;11.918;2023-09-18T03:58:41;4.40;;;4.10;;
13218;SDS011;6674;49.152;11.918;2023-09-18T04:01:07;4.73;;;4.43;;
13218;SDS011;6674;49.152;11.918;2023-09-18T04:03:33;5.03;;;4.63;;
13218;SDS011;6674;49.152;11.918;2023-09-18T04:06:00;4.90;;;4.50;;
13218;SDS011;6674;49.152;11.918;2023-09-18T04:08:26;4.93;;;4.63;;
13218;SDS011;6674;49.152;11.918;2023-09-18T04:10:53;6.10;;;5.60;;
13218;SDS011;6674;49.152;11.918;2023-09-18T04:13:20;5.83;;;5.43;;
13218;SDS011;6674;49.152;11.918;2023-09-18T04:15:48;5.73;;;5.33;;
13218;SDS011;6674;49.152;11.918;2023-09-18T04:18:15;4.90;;;4.60;;
13218;SDS011;6674;49.152;11.918;2023-09-18T04:20:41;4.87;;;4.53;;
13218;SDS011;6674;49.152;11.918;2023-09-18T04:23:17;5.20;;;4.80;;
13218;SDS011;6674;49.152;11.918;2023-09-18T04:25:44;5.30;;;4.80;;
13218;SDS011;6674;49.152;11.918;2023-09-18T04:28:11;5.00;;;4.60;;
13218;SDS011;6674;49.152;11.918;2023-09-18T04:30:38;4.60;;;4.30;;
13218;SDS011;6674;49.152;11.918;2023-09-18T04:33:06;5.53;;;5.10;;
13218;SDS011;6674;49.152;11.918;2023-09-18T04:35:33;5.03;;;4.73;;
13218;SDS011;6674;49.152;11.918;2023-09-18T04:37:59;5.33;;;4.93;;
13218;SDS011;6674;49.152;11.918;2023-09-18T04:40:26;5.83;;;5.43;;
13218;SDS011;6674;49.152;11.918;2023-09-18T04:42:57;5.20;;;4.80;;
13218;SDS011;6674;49.152;11.918;2023-09-18T04:45:23;5.07;;;4.67;;
13218;SDS011;6674;49.152;11.918;2023-09-18T04:47:49;5.33;;;4.93;;
13218;SDS011;6674;49.152;11.918;2023-09-18T04:50:17;5.10;;;4.70;;
13218;SDS011;6674;49.152;11.918;2023-09-18T04:52:44;4.83;;;4.53;;
13218;SDS011;6674;49.152;11.918;2023-09-18T04:55:09;5.00;;;4.67;;
13218;SDS011;6674;49.152;11.918;2023-09-18T04:57:36;5.17;;;4.77;;
13218;SDS011;6674;49.152;11.918;2023-09-18T05:00:03;5.63;;;5.23;;
13218;SDS011;6674;49.152;11.918;2023-09-18T05:02:32;5.00;;;4.60;;
13218;SDS011;6674;49.152;11.918;2023-09-18T05:05:00;5.90;;;5.50;;
13218;SDS011;6674;49.152;11.918;2023-09-18T05:07:30;5.37;;;4.87;;
13218;SDS011;6674;49.152;11.918;2023-09-18T05:09:57;5.03;;;4.70;;
13218;SDS011;6674;49.152;11.918;2023-09-18T05:12:24;5.87;;;5.40;;
13218;SDS011;6674;49.152;11.918;2023-09-18T05:14:50;5.53;;;5.13;;
13218;SDS011;6674;49.152;11.918;2023-09-18T05:17:17;5.73;;;5.23;;
13218;SDS011;6674;49.152;11.918;2023-09-18T05:19:44;6.10;;;5.60;;
13218;SDS011;6674;49.152;11.918;2023-09-18T05:22:11;5.50;;;5.10;;
13218;SDS011;6674;49.152;11.918;2023-09-18T05:24:39;5.33;;;4.93;;
13218;SDS011;6674;49.152;11.918;2023-09-18T05:27:05;6.13;;;5.63;;
13218;SDS011;6674;49.152;11.918;2023-09-18T05:29:32;6.47;;;5.80;;
13218;SDS011;6674;49.152;11.918;2023-09-18T05:32:00;6.13;;;5.63;;
13218;SDS011;6674;49.152;11.918;2023-09-18T05:34:27;5.80;;;5.30;;
13218;SDS011;6674;49.152;11.918;2023-09-18T05:36:53;5.37;;;4.97;;
13218;SDS011;6674;49.152;11.918;2023-09-18T05:39:23;4.80;;;4.50;;
13218;SDS011;6674;49.152;11.918;2023-09-18T05:41:51;5.23;;;4.83;;
13218;SDS011;6674;49.152;11.918;2023-09-18T05:44:17;5.10;;;4.70;;
13218;SDS011;6674;49.152;11.918;2023-09-18T05:46:44;5.73;;;5.23;;
13218;SDS011;6674;49.152;11.918;2023-09-18T05:49:11;5.37;;;4.97;;
13218;SDS011;6674;49.152;11.918;2023-09-18T05:51:37;5.20;;;4.80;;
13218;SDS011;6674;49.152;11.918;2023-09-18T05:54:04;5.50;;;5.10;;
13218;SDS011;6674;49.152;11.918;2023-09-18T05:56:30;5.10;;;4.70;;
13218;SDS011;6674;49.152;11.918;2023-09-18T05:58:58;6.17;;;5.73;;
13218;SDS011;6674;49.152;11.918;2023-09-18T06:01:24;5.67;;;5.23;;
13218;SDS011;6674;49.152;11.918;2023-09-18T06:03:51;4.90;;;4.50;;
13218;SDS011;6674;49.152;11.918;2023-09-18T06:06:17;5.23;;;4.83;;
13218;SDS011;6674;49.152;11.918;2023-09-18T06:08:44;5.23;;;4.83;;
13218;SDS011;6674;49.152;11.918;2023-09-18T06:11:10;5.30;;;4.90;;
13218;SDS011;6674;49.152;11.918;2023-09-18T06:13:36;5.10;;;4.73;;
13218;SDS011;6674;49.152;11.918;2023-09-18T06:16:05;5.43;;;4.93;;
13218;SDS011;6674;49.152;11.918;2023-09-18T06:18:33;5.80;;;5.30;;
13218;SDS011;6674;49.152;11.918;2023-09-18T06:21:00;5.80;;;5.30;;
13218;SDS011;6674;49.152;11.918;2023-09-18T06:23:27;5.53;;;5.10;;
13218;SDS011;6674;49.152;11.918;2023-09-18T06:25:53;6.07;;;5.57;;
13218;SDS011;6674;49.152;11.918;2023-09-18T06:28:21;5.33;;;4.93;;
13218;SDS011;6674;49.152;11.918;2023-09-18T06:30:48;5.60;;;5.20;;
13218;SDS011;6674;49.152;11.918;2023-09-18T06:33:16;4.87;;;4.47;;
13218;SDS011;6674;49.152;11.918;2023-09-18T06:35:42;6.10;;;5.60;;
13218;SDS011;6674;49.152;11.918;2023-09-18T06:38:09;5.30;;;4.90;;
13218;SDS011;6674;49.152;11.918;2023-09-18T06:40:37;5.63;;;5.23;;
13218;SDS011;6674;49.152;11.918;2023-09-18T06:43:05;5.50;;;5.10;;
13218;SDS011;6674;49.152;11.918;2023-09-18T06:45:31;5.90;;;5.50;;
13218;SDS011;6674;49.152;11.918;2023-09-18T06:47:58;5.63;;;5.17;;
13218;SDS011;6674;49.152;11.918;2023-09-18T06:50:26;5.33;;;4.93;;
13218;SDS011;6674;49.152;11.918;2023-09-18T06:52:53;5.77;;;5.27;;
13218;SDS011;6674;49.152;11.918;2023-09-18T06:55:19;5.70;;;5.20;;
13218;SDS011;6674;49.152;11.918;2023-09-18T06:57:46;5.97;;;5.47;;
13218;SDS011;6674;49.152;11.918;2023-09-18T07:00:13;5.00;;;4.63;;
13218;SDS011;6674;49.152;11.918;2023-09-18T07:02:43;5.00;;;4.53;;
13218;SDS011;6674;49.152;11.918;2023-09-18T07:05:10;5.30;;;4.80;;
13218;SDS011;6674;49.152;11.918;2023-09-18T07:07:38;5.13;;;4.73;;
13218;SDS011;6674;49.152;11.918;2023-09-18T07:10:06;5.47;;;5.07;;
13218;SDS011;6674;49.152;11.918;2023-09-18T07:12:32;5.00;;;4.60;;
13218;SDS011;6674;49.152;11.918;2023-09-18T07:14:59;5.17;;;4.77;;
13218;SDS011;6674;49.152;11.918;2023-09-18T07:17:28;4.93;;;4.43;;
13218;SDS011;6674;49.152;11.918;2023-09-18T07:19:55;5.97;;;5.47;;
13218;SDS011;6674;49.152;11.918;2023-09-18T07:22:21;5.53;;;4.90;;
13218;SDS011;6674;49.152;11.918;2023-09-18T07:24:49;5.03;;;4.63;;
13218;SDS011;6674;49.152;11.918;2023-09-18T07:27:16;5.87;;;5.37;;
13218;SDS011;6674;49.152;11.918;2023-09-18T07:29:42;4.90;;;4.50;;
13218;SDS011;6674;49.152;11.918;2023-09-18T07:32:09;5.53;;;5.13;;
13218;SDS011;6674;49.152;11.918;2023-09-18T07:34:35;5.03;;;4.63;;
13218;SDS011;6674;49.152;11.918;2023-09-18T07:37:02;4.90;;;4.60;;
13218;SDS011;6674;49.152;11.918;2023-09-18T07:39:28;5.20;;;4.80;;
13218;SDS011;6674;49.152;11.918;2023-09-18T07:41:56;5.03;;;4.63;;
13218;SDS011;6674;49.152;11.918;2023-09-18T07:44:23;4.77;;;4.47;;
13218;SDS011;6674;49.152;11.918;2023-09-18T07:46:49;4.90;;;4.40;;
13218;SDS011;6674;49.152;11.918;2023-09-18T07:49:15;4.80;;;4.30;;
13218;SDS011;6674;49.152;11.918;2023-09-18T07:51:43;5.33;;;4.83;;
13218;SDS011;6674;49.152;11.918;2023-09-18T07:54:13;4.70;;;4.40;;
13218;SDS011;6674;49.152;11.918;2023-09-18T07:56:40;4.70;;;4.30;;
13218;SDS011;6674;49.152;11.918;2023-09-18T07:59:09;4.90;;;4.50;;
13218;SDS011;6674;49.152;11.918;2023-09-18T08:01:36;4.67;;;4.27;;
13218;SDS011;6674;49.152;11.918;2023-09-18T08:04:03;4.30;;;4.00;;
13218;SDS011;6674;49.152;11.918;2023-09-18T08:06:30;4.40;;;4.10;;
13218;SDS011;6674;49.152;11.918;2023-09-18T08:08:56;4.80;;;4.40;;
13218;SDS011;6674;49.152;11.918;2023-09-18T08:11:23;4.10;;;3.80;;
13218;SDS011;6674;49.152;11.918;2023-09-18T08:13:50;4.30;;;4.00;;
13218;SDS011;6674;49.152;11.918;2023-09-18T08:16:17;4.30;;;4.00;;
13218;SDS011;6674;49.152;11.918;2023-09-18T08:18:44;4.40;;;4.07;;
13218;SDS011;6674;49.152;11.918;2023-09-18T08:21:10;4.80;;;4.40;;
13218;SDS011;6674;49.152;11.918;2023-09-18T08:23:39;4.70;;;4.30;;
13218;SDS011;6674;49.152;11.918;2023-09-18T08:26:05;4.60;;;4.20;;
13218;SDS011;6674;49.152;11.918;2023-09-18T08:28:32;4.37;;;3.97;;
13218;SDS011;6674;49.152;11.918;2023-09-18T08:31:01;4.37;;;4.07;;
13218;SDS011;6674;49.152;11.918;2023-09-18T08:33:28;4.00;;;3.70;;
13218;SDS011;6674;49.152;11.918;2023-09-18T08:35:55;3.87;;;3.57;;
13218;SDS011;6674;49.152;11.918;2023-09-18T08:38:22;3.60;;;3.40;;
13218;SDS011;6674;49.152;11.918;2023-09-18T08:40:48;4.07;;;3.77;;
13218;SDS011;6674;49.152;11.918;2023-09-18T08:43:14;3.53;;;3.27;;
13218;SDS011;6674;49.152;11.918;2023-09-18T08:45:49;4.03;;;3.70;;
13218;SDS011;6674;49.152;11.918;2023-09-18T08:48:17;4.20;;;3.30;;
13218;SDS011;6674;49.152;11.918;2023-09-18T08:50:45;3.33;;;3.13;;
13218;SDS011;6674;49.152;11.918;2023-09-18T08:53:12;4.00;;;3.60;;
13218;SDS011;6674;49.152;11.918;2023-09-18T08:55:38;3.70;;;3.40;;
13218;SDS011;6674;49.152;11.918;2023-09-18T08:58:06;3.70;;;3.40;;
13218;SDS011;6674;49.152;11.918;2023-09-18T09:00:32;3.63;;;3.43;;
13218;SDS011;6674;49.152;11.918;2023-09-18T09:03:00;4.10;;;3.70;;
13218;SDS011;6674;49.152;11.918;2023-09-18T09:05:27;3.97;;;3.40;;
13218;SDS011;6674;49.152;11.918;2023-09-18T09:07:55;4.33;;;4.00;;
13218;SDS011;6674;49.152;11.918;2023-09-18T09:10:21;4.03;;;3.73;;
13218;SDS011;6674;49.152;11.918;2023-09-18T09:12:50;4.53;;;4.00;;
13218;SDS011;6674;49.152;11.918;2023-09-18T09:15:18;3.90;;;3.33;;
13218;SDS011;6674;49.152;11.918;2023-09-18T09:17:45;3.95;;;3.50;;
13218;SDS011;6674;49.152;11.918;2023-09-18T09:20:12;3.97;;;3.60;;
13218;SDS011;6674;49.152;11.918;2023-09-18T09:22:40;3.85;;;3.30;;
13218;SDS011;6674;49.152;11.918;2023-09-18T09:27:50;3.40;;;3.20;;
13218;SDS011;6674;49.152;11.918;2023-09-18T09:30:20;4.50;;;3.50;;
13218;SDS011;6674;49.152;11.918;2023-09-18T09:32:47;3.95;;;3.47;;
13218;SDS011;6674;49.152;11.918;2023-09-18T09:35:18;3.92;;;3.40;;
13218;SDS011;6674;49.152;11.918;2023-09-18T09:37:44;3.75;;;3.30;;
13218;SDS011;6674;49.152;11.918;2023-09-18T09:40:11;5.38;;;3.67;;
13218;SDS011;6674;49.152;11.918;2023-09-18T09:42:39;4.28;;;3.05;;
13218;SDS011;6674;49.152;11.918;2023-09-18T09:45:10;3.10;;;2.80;;
13218;SDS011;6674;49.152;11.918;2023-09-18T09:47:38;5.53;;;3.28;;
13218;SDS011;6674;49.152;11.918;2023-09-18T09:50:07;6.32;;;3.42;;
13218;SDS011;6674;49.152;11.918;2023-09-18T09:52:35;3.58;;;3.03;;
13218;SDS011;6674;49.152;11.918;2023-09-18T09:55:05;4.53;;;3.28;;
13218;SDS011;6674;49.152;11.918;2023-09-18T09:57:46;3.95;;;3.42;;
13218;SDS011;6674;49.152;11.918;2023-09-18T10:00:14;4.43;;;3.00;;
13218;SDS011;6674;49.152;11.918;2023-09-18T10:02:54;3.75;;;2.95;;
13218;SDS011;6674;49.152;11.918;2023-09-18T10:05:22;5.57;;;3.20;;
13218;SDS011;6674;49.152;11.918;2023-09-18T10:07:51;3.25;;;2.70;;
13218;SDS011;6674;49.152;11.918;2023-09-18T10:10:17;7.32;;;3.45;;
13218;SDS011;6674;49.152;11.918;2023-09-18T10:12:50;6.38;;;3.13;;
13218;SDS011;6674;49.152;11.918;2023-09-18T10:15:18;5.55;;;3.45;;
13218;SDS011;6674;49.152;11.918;2023-09-18T10:17:45;5.72;;;3.17;;
13218;SDS011;6674;49.152;11.918;2023-09-18T10:20:14;4.25;;;2.80;;
13218;SDS011;6674;49.152;11.918;2023-09-18T10:22:46;3.00;;;2.70;;
13218;SDS011;6674;49.152;11.918;2023-09-18T10:25:14;4.95;;;3.28;;
13218;SDS011;6674;49.152;11.918;2023-09-18T10:27:44;6.10;;;3.50;;
13218;SDS011;6674;49.152;11.918;2023-09-18T10:30:11;6.85;;;3.00;;
13218;SDS011;6674;49.152;11.918;2023-09-18T10:32:47;5.18;;;2.80;;
13218;SDS011;6674;49.152;11.918;2023-09-18T10:35:13;3.75;;;2.08;;
13218;SDS011;6674;49.152;11.918;2023-09-18T10:37:41;4.35;;;2.50;;
13218;SDS011;6674;49.152;11.918;2023-09-18T10:40:08;7.63;;;3.08;;
13218;SDS011;6674;49.152;11.918;2023-09-18T10:42:34;5.25;;;2.88;;
13218;SDS011;6674;49.152;11.918;2023-09-18T10:45:03;4.25;;;2.60;;
13218;SDS011;6674;49.152;11.918;2023-09-18T10:47:32;5.35;;;2.67;;
13218;SDS011;6674;49.152;11.918;2023-09-18T10:50:02;4.22;;;2.20;;
13218;SDS011;6674;49.152;11.918;2023-09-18T10:52:30;4.35;;;2.00;;
13218;SDS011;6674;49.152;11.918;2023-09-18T10:54:57;4.60;;;2.10;;
13218;SDS011;6674;49.152;11.918;2023-09-18T10:57:23;3.05;;;2.05;;
13218;SDS011;6674;49.152;11.918;2023-09-18T10:59:51;5.20;;;2.05;;
13218;SDS011;6674;49.152;11.918;2023-09-18T11:02:20;5.68;;;2.22;;
13218;SDS011;6674;49.152;11.918;2023-09-18T11:04:47;6.30;;;2.25;;
13218;SDS011;6674;49.152;11.918;2023-09-18T11:07:22;5.38;;;2.40;;
13218;SDS011;6674;49.152;11.918;2023-09-18T11:09:49;4.30;;;2.60;;
13218;SDS011;6674;49.152;11.918;2023-09-18T11:12:16;5.70;;;2.78;;
13218;SDS011;6674;49.152;11.918;2023-09-18T11:14:46;6.97;;;2.60;;
13218;SDS011;6674;49.152;11.918;2023-09-18T11:17:31;2.30;;;1.80;;
13218;SDS011;6674;49.152;11.918;2023-09-18T11:20:02;5.40;;;2.70;;
13218;SDS011;6674;49.152;11.918;2023-09-18T11:22:30;4.93;;;2.42;;
13218;SDS011;6674;49.152;11.918;2023-09-18T11:27:45;4.30;;;2.47;;
13218;SDS011;6674;49.152;11.918;2023-09-18T11:30:19;5.85;;;2.80;;
13218;SDS011;6674;49.152;11.918;2023-09-18T11:32:45;4.78;;;2.40;;
13218;SDS011;6674;49.152;11.918;2023-09-18T11:35:13;4.60;;;2.60;;
13218;SDS011;6674;49.152;11.918;2023-09-18T11:37:45;5.25;;;2.53;;
13218;SDS011;6674;49.152;11.918;2023-09-18T11:40:29;6.20;;;3.00;;
13218;SDS011;6674;49.152;11.918;2023-09-18T11:45:54;3.80;;;2.42;;
13218;SDS011;6674;49.152;11.918;2023-09-18T11:48:21;4.80;;;2.78;;
13218;SDS011;6674;49.152;11.918;2023-09-18T11:50:49;5.00;;;2.63;;
13218;SDS011;6674;49.152;11.918;2023-09-18T11:53:17;4.35;;;2.15;;
13218;SDS011;6674;49.152;11.918;2023-09-18T11:55:44;3.75;;;2.28;;
13218;SDS011;6674;49.152;11.918;2023-09-18T11:58:12;7.82;;;2.65;;
13218;SDS011;6674;49.152;11.918;2023-09-18T12:00:38;3.35;;;2.30;;
13218;SDS011;6674;49.152;11.918;2023-09-18T12:03:14;4.95;;;2.50;;
13218;SDS011;6674;49.152;11.918;2023-09-18T12:05:43;5.15;;;2.65;;
13218;SDS011;6674;49.152;11.918;2023-09-18T12:08:10;4.13;;;2.60;;
13218;SDS011;6674;49.152;11.918;2023-09-18T12:10:38;7.45;;;2.75;;
13218;SDS011;6674;49.152;11.918;2023-09-18T12:13:05;5.03;;;2.50;;
13218;SDS011;6674;49.152;11.918;2023-09-18T12:15:34;5.25;;;2.50;;
13218;SDS011;6674;49.152;11.918;2023-09-18T12:18:07;4.55;;;2.55;;
13218;SDS011;6674;49.152;11.918;2023-09-18T12:20:34;6.13;;;2.90;;
13218;SDS011;6674;49.152;11.918;2023-09-18T12:23:02;4.57;;;2.92;;
13218;SDS011;6674;49.152;11.918;2023-09-18T12:25:28;4.95;;;2.70;;
13218;SDS011;6674;49.152;11.918;2023-09-18T12:27:56;3.25;;;2.40;;
13218;SDS011;6674;49.152;11.918;2023-09-18T12:30:25;3.83;;;2.38;;
13218;SDS011;6674;49.152;11.918;2023-09-18T12:32:52;5.63;;;2.60;;
13218;SDS011;6674;49.152;11.918;2023-09-18T12:35:18;6.40;;;2.45;;
13218;SDS011;6674;49.152;11.918;2023-09-18T12:37:45;4.18;;;1.90;;
13218;SDS011;6674;49.152;11.918;2023-09-18T12:40:22;4.82;;;1.90;;
13218;SDS011;6674;49.152;11.918;2023-09-18T12:42:48;3.70;;;1.88;;
13218;SDS011;6674;49.152;11.918;2023-09-18T12:45:16;3.55;;;1.60;;
13218;SDS011;6674;49.152;11.918;2023-09-18T12:47:43;4.85;;;1.83;;
13218;SDS011;6674;49.152;11.918;2023-09-18T12:50:12;3.30;;;1.58;;
13218;SDS011;6674;49.152;11.918;2023-09-18T12:52:39;4.10;;;1.90;;
13218;SDS011;6674;49.152;11.918;2023-09-18T12:55:05;3.72;;;1.70;;
13218;SDS011;6674;49.152;11.918;2023-09-18T12:57:32;3.47;;;1.80;;
13218;SDS011;6674;49.152;11.918;2023-09-18T12:59:59;3.63;;;1.98;;
13218;SDS011;6674;49.152;11.918;2023-09-18T13:02:31;2.80;;;1.57;;
13218;SDS011;6674;49.152;11.918;2023-09-18T13:04:58;4.23;;;1.73;;
13218;SDS011;6674;49.152;11.918;2023-09-18T13:07:24;3.83;;;1.70;;
13218;SDS011;6674;49.152;11.918;2023-09-18T13:09:58;6.40;;;1.70;;
13218;SDS011;6674;49.152;11.918;2023-09-18T13:12:38;8.23;;;2.13;;
13218;SDS011;6674;49.152;11.918;2023-09-18T13:15:06;5.27;;;1.60;;
13218;SDS011;6674;49.152;11.918;2023-09-18T13:17:38;2.77;;;1.37;;
13218;SDS011;6674;49.152;11.918;2023-09-18T13:20:11;2.50;;;1.50;;
13218;SDS011;6674;49.152;11.918;2023-09-18T13:22:38;3.97;;;1.37;;
13218;SDS011;6674;49.152;11.918;2023-09-18T13:25:05;1.67;;;0.97;;
13218;SDS011;6674;49.152;11.918;2023-09-18T13:27:34;2.57;;;1.00;;
13218;SDS011;6674;49.152;11.918;2023-09-18T13:30:00;3.60;;;1.27;;
13218;SDS011;6674;49.152;11.918;2023-09-18T13:32:33;1.57;;;0.90;;
13218;SDS011;6674;49.152;11.918;2023-09-18T13:35:00;1.93;;;0.97;;
13218;SDS011;6674;49.152;11.918;2023-09-18T13:37:27;3.00;;;0.97;;
13218;SDS011;6674;49.152;11.918;2023-09-18T13:39:54;1.83;;;0.80;;
13218;SDS011;6674;49.152;11.918;2023-09-18T13:42:21;0.90;;;0.80;;
13218;SDS011;6674;49.152;11.918;2023-09-18T13:44:48;1.67;;;0.63;;
13218;SDS011;6674;49.152;11.918;2023-09-18T13:47:16;1.40;;;0.77;;
13218;SDS011;6674;49.152;11.918;2023-09-18T13:49:42;1.37;;;0.70;;
13218;SDS011;6674;49.152;11.918;2023-09-18T13:52:13;1.07;;;0.67;;
13218;SDS011;6674;49.152;11.918;2023-09-18T13:54:39;0.97;;;0.60;;
13218;SDS011;6674;49.152;11.918;2023-09-18T13:57:06;0.60;;;0.50;;
13218;SDS011;6674;49.152;11.918;2023-09-18T13:59:32;1.60;;;0.90;;
13218;SDS011;6674;49.152;11.918;2023-09-18T14:01:59;1.97;;;0.83;;
13218;SDS011;6674;49.152;11.918;2023-09-18T14:04:26;2.03;;;0.60;;
13218;SDS011;6674;49.152;11.918;2023-09-18T14:06:54;0.90;;;0.60;;
13218;SDS011;6674;49.152;11.918;2023-09-18T14:09:21;2.00;;;0.77;;
13218;SDS011;6674;49.152;11.918;2023-09-18T14:11:48;2.40;;;1.13;;
13218;SDS011;6674;49.152;11.918;2023-09-18T14:14:14;1.47;;;0.90;;
13218;SDS011;6674;49.152;11.918;2023-09-18T14:16:41;1.33;;;0.80;;
13218;SDS011;6674;49.152;11.918;2023-09-18T14:19:08;1.57;;;0.87;;
13218;SDS011;6674;49.152;11.918;2023-09-18T14:21:36;0.80;;;0.77;;
13218;SDS011;6674;49.152;11.918;2023-09-18T14:24:04;1.67;;;1.20;;
13218;SDS011;6674;49.152;11.918;2023-09-18T14:26:32;1.40;;;1.10;;
13218;SDS011;6674;49.152;11.918;2023-09-18T14:28:59;0.60;;;0.60;;
13218;SDS011;6674;49.152;11.918;2023-09-18T14:31:26;1.23;;;0.70;;
13218;SDS011;6674;49.152;11.918;2023-09-18T14:33:53;1.27;;;0.90;;
13218;SDS011;6674;49.152;11.918;2023-09-18T14:36:20;1.47;;;0.67;;
13218;SDS011;6674;49.152;11.918;2023-09-18T14:38:47;2.23;;;0.70;;
13218;SDS011;6674;49.152;11.918;2023-09-18T14:41:13;1.83;;;0.70;;
13218;SDS011;6674;49.152;11.918;2023-09-18T14:43:44;1.47;;;0.80;;
13218;SDS011;6674;49.152;11.918;2023-09-18T14:46:11;2.07;;;0.90;;
13218;SDS011;6674;49.152;11.918;2023-09-18T14:48:37;1.63;;;1.10;;
13218;SDS011;6674;49.152;11.918;2023-09-18T14:51:04;1.43;;;0.97;;
13218;SDS011;6674;49.152;11.918;2023-09-18T14:53:32;1.10;;;1.00;;
13218;SDS011;6674;49.152;11.918;2023-09-18T14:55:59;2.10;;;1.00;;
13218;SDS011;6674;49.152;11.918;2023-09-18T14:58:26;1.40;;;0.70;;
13218;SDS011;6674;49.152;11.918;2023-09-18T15:00:54;0.70;;;0.60;;